createdAt,value
2022-10-04T00:01:00.032Z,10.82
2022-10-04T00:03:32.878Z,15.63
2022-10-04T00:06:02.424Z,10.30
2022-10-04T00:11:06.267Z,12.98
2022-10-04T00:13:37.144Z,11.85
2022-10-04T00:16:04.714Z,16.52
2022-10-04T00:18:38.875Z,16.25
2022-10-04T00:21:06.679Z,10.57
2022-10-04T00:23:45.134Z,15.95
2022-10-04T00:26:30.545Z,12.35
2022-10-04T00:28:58.917Z,11.50
2022-10-04T00:31:26.551Z,14.70
2022-10-04T00:33:56.910Z,10.60
2022-10-04T00:36:45.822Z,15.95
2022-10-04T00:39:27.922Z,17.27
2022-10-04T00:42:03.568Z,14.55
2022-10-04T00:44:39.909Z,24.05
2022-10-04T00:47:20.076Z,12.30
2022-10-04T00:49:48.812Z,12.93
2022-10-04T00:52:21.456Z,10.40
2022-10-04T00:54:51.928Z,14.95
2022-10-04T00:57:24.640Z,15.60
2022-10-04T00:59:56.289Z,16.00
2022-10-04T01:02:27.443Z,11.50
2022-10-04T01:04:59.641Z,11.20
2022-10-04T01:07:30.961Z,18.13
2022-10-04T01:10:02.670Z,21.88
2022-10-04T01:12:41.071Z,18.48
2022-10-04T01:15:14.712Z,18.80
2022-10-04T01:17:41.537Z,16.08
2022-10-04T01:20:32.189Z,18.02
2022-10-04T01:23:00.453Z,24.30
2022-10-04T01:25:43.060Z,22.65
2022-10-04T01:28:10.284Z,20.02
2022-10-04T01:30:37.273Z,17.17
2022-10-04T01:33:07.185Z,14.13
2022-10-04T01:35:37.455Z,19.02
2022-10-04T01:38:07.287Z,17.33
2022-10-04T01:40:35.372Z,17.45
2022-10-04T01:43:07.030Z,14.98
2022-10-04T01:45:38.711Z,15.75
2022-10-04T01:48:11.008Z,15.73
2022-10-04T01:50:43.195Z,13.80
2022-10-04T01:53:18.810Z,11.05
2022-10-04T01:55:50.972Z,13.93
2022-10-04T01:58:20.660Z,14.43
2022-10-04T02:00:52.117Z,13.55
2022-10-04T02:03:25.009Z,18.95
2022-10-04T02:05:56.664Z,13.73
2022-10-04T02:08:28.723Z,17.27
2022-10-04T02:10:56.585Z,15.13
2022-10-04T02:13:29.958Z,14.30
2022-10-04T02:15:59.086Z,15.32
2022-10-04T02:18:27.205Z,17.40
2022-10-04T02:20:55.267Z,17.35
2022-10-04T02:23:23.867Z,16.50
2022-10-04T02:25:52.180Z,13.70
2022-10-04T02:28:19.140Z,16.25
2022-10-04T02:31:08.725Z,17.65
2022-10-04T02:33:40.748Z,17.80
2022-10-04T02:36:09.731Z,21.27
2022-10-04T02:38:41.994Z,13.85
2022-10-04T02:41:20.737Z,14.00
2022-10-04T02:43:53.567Z,17.48
2022-10-04T02:46:26.037Z,19.65
2022-10-04T02:48:56.799Z,14.02
2022-10-04T02:51:31.012Z,16.38
2022-10-04T02:54:04.035Z,21.65
2022-10-04T02:56:33.551Z,17.85
2022-10-04T02:59:02.185Z,16.45
2022-10-04T03:01:41.253Z,16.05
2022-10-04T03:04:12.466Z,19.38
2022-10-04T03:06:39.601Z,16.42
2022-10-04T03:09:07.124Z,14.13
2022-10-04T03:11:38.095Z,22.67
2022-10-04T03:14:10.249Z,15.10
2022-10-04T03:16:39.580Z,16.77
2022-10-04T03:19:08.115Z,19.50
2022-10-04T03:21:36.816Z,15.18
2022-10-04T03:24:06.376Z,13.95
2022-10-04T03:29:09.668Z,22.52
2022-10-04T03:31:41.388Z,21.58
2022-10-04T03:34:14.360Z,19.73
2022-10-04T03:36:41.695Z,22.10
2022-10-04T03:39:11.530Z,20.40
2022-10-04T03:41:39.901Z,19.95
2022-10-04T03:44:15.756Z,17.13
2022-10-04T03:46:44.090Z,19.85
2022-10-04T03:49:15.186Z,20.42
2022-10-04T03:51:46.564Z,19.92
2022-10-04T03:54:20.861Z,26.00
2022-10-04T03:56:47.987Z,19.40
2022-10-04T03:59:18.350Z,23.75
2022-10-04T04:01:49.559Z,22.67
2022-10-04T04:04:22.317Z,23.58
2022-10-04T04:06:56.701Z,19.65
2022-10-04T04:09:28.311Z,21.95
2022-10-04T04:11:57.915Z,18.40
2022-10-04T04:16:55.896Z,18.30
2022-10-04T04:19:25.604Z,23.45
2022-10-04T04:21:55.284Z,25.08
2022-10-04T04:26:55.993Z,18.55
2022-10-04T04:29:28.036Z,19.77
2022-10-04T04:31:59.264Z,19.20
2022-10-04T04:34:30.077Z,19.92
2022-10-04T04:36:59.048Z,21.33
2022-10-04T04:39:37.467Z,19.60
2022-10-04T04:42:12.455Z,24.48
2022-10-04T04:44:47.467Z,20.42
2022-10-04T04:47:25.612Z,20.20
2022-10-04T04:49:53.511Z,21.27
2022-10-04T04:52:23.714Z,26.95
2022-10-04T04:54:50.706Z,20.50
2022-10-04T04:57:17.652Z,20.73
2022-10-04T04:59:48.919Z,20.65
2022-10-04T05:02:35.172Z,22.85
2022-10-04T05:05:20.726Z,18.80
2022-10-04T05:07:48.313Z,24.33
2022-10-04T05:10:28.381Z,20.33
2022-10-04T05:12:55.523Z,20.08
2022-10-04T05:15:23.826Z,19.17
2022-10-04T05:17:50.625Z,23.27
2022-10-04T05:20:18.613Z,29.02
2022-10-04T05:22:48.357Z,17.98
2022-10-04T05:25:23.704Z,19.30
2022-10-04T05:27:50.760Z,19.55
2022-10-04T05:30:33.315Z,24.50
2022-10-04T05:33:02.078Z,24.17
2022-10-04T05:35:29.963Z,23.75
2022-10-04T05:38:06.471Z,21.42
2022-10-04T05:40:45.273Z,19.08
2022-10-04T05:43:25.043Z,22.33
2022-10-04T05:48:45.596Z,22.65
2022-10-04T05:51:18.539Z,27.98
2022-10-04T05:53:46.544Z,22.48
2022-10-04T05:56:30.956Z,26.00
2022-10-04T05:59:11.536Z,22.15
2022-10-04T06:01:47.315Z,25.85
2022-10-04T06:04:38.560Z,20.80
2022-10-04T06:07:16.416Z,26.23
2022-10-04T06:09:56.499Z,26.67
2022-10-04T06:12:40.172Z,23.63
2022-10-04T06:15:25.862Z,24.67
2022-10-04T06:18:08.060Z,20.25
2022-10-04T06:20:58.177Z,19.33
2022-10-04T06:23:28.946Z,24.70
2022-10-04T06:25:59.394Z,23.48
2022-10-04T06:28:31.957Z,27.13
2022-10-04T06:31:26.157Z,28.58
2022-10-04T06:34:13.669Z,23.35
2022-10-04T06:37:02.097Z,25.10
2022-10-04T06:39:49.398Z,27.42
2022-10-04T06:45:21.370Z,20.42
2022-10-04T06:48:12.270Z,20.25
2022-10-04T06:50:50.053Z,27.10
2022-10-04T06:53:31.011Z,24.02
2022-10-04T06:56:15.751Z,21.83
2022-10-04T06:59:04.399Z,23.98
2022-10-04T07:01:33.679Z,20.73
2022-10-04T07:04:10.417Z,23.30
2022-10-04T07:06:43.727Z,21.90
2022-10-04T07:09:22.244Z,26.15
2022-10-04T07:11:53.295Z,22.35
2022-10-04T07:14:27.383Z,20.20
2022-10-04T07:17:00.266Z,22.65
2022-10-04T07:19:34.991Z,19.75
2022-10-04T07:22:15.263Z,17.30
2022-10-04T07:24:56.859Z,16.83
2022-10-04T07:27:29.685Z,20.77
2022-10-04T07:29:59.271Z,19.60
2022-10-04T07:32:29.346Z,17.75
2022-10-04T07:35:02.532Z,19.92
2022-10-04T07:37:34.872Z,20.95
2022-10-04T07:40:09.162Z,21.17
2022-10-04T07:42:46.079Z,18.77
2022-10-04T07:45:19.688Z,18.25
2022-10-04T07:47:46.885Z,18.23
2022-10-04T07:50:22.459Z,17.95
2022-10-04T07:52:57.843Z,18.67
2022-10-04T07:58:16.340Z,21.20
2022-10-04T08:00:50.927Z,22.55
2022-10-04T08:03:33.111Z,24.35
2022-10-04T08:06:12.628Z,21.60
2022-10-04T08:08:54.381Z,19.92
2022-10-04T08:11:37.433Z,18.25
2022-10-04T08:14:18.960Z,20.65
2022-10-04T08:16:58.551Z,20.10
2022-10-04T08:19:38.190Z,24.88
2022-10-04T08:22:14.209Z,21.67
2022-10-04T08:24:56.118Z,18.92
2022-10-04T08:28:07.954Z,18.33
2022-10-04T08:30:52.779Z,21.00
2022-10-04T08:33:32.401Z,19.83
2022-10-04T08:36:11.665Z,21.67
2022-10-04T08:38:46.866Z,19.55
2022-10-04T08:41:54.758Z,20.77
2022-10-04T08:44:58.660Z,20.50
2022-10-04T08:47:59.277Z,20.15
2022-10-04T08:51:10.217Z,18.08
2022-10-04T08:54:04.419Z,22.60
2022-10-04T08:56:51.196Z,26.27
2022-10-04T08:59:57.952Z,18.77
2022-10-04T09:02:54.092Z,19.80
2022-10-04T09:05:32.703Z,18.40
2022-10-04T09:08:22.197Z,21.90
2022-10-04T09:11:06.869Z,20.70
2022-10-04T09:13:43.370Z,21.52
2022-10-04T09:16:19.373Z,19.50
2022-10-04T09:18:52.080Z,19.35
2022-10-04T09:21:29.019Z,25.33
2022-10-04T09:24:25.414Z,23.13
2022-10-04T09:26:58.362Z,21.38
2022-10-04T09:29:42.039Z,22.15
2022-10-04T09:32:50.697Z,20.13
2022-10-04T09:35:49.917Z,20.73
2022-10-04T09:38:40.223Z,21.00
2022-10-04T09:41:35.008Z,25.77
2022-10-04T09:44:33.992Z,22.50
2022-10-04T09:47:31.409Z,25.23
2022-10-04T09:50:37.334Z,19.65
2022-10-04T09:53:29.037Z,16.23
2022-10-04T09:56:42.583Z,20.13
2022-10-04T09:59:56.391Z,14.90
2022-10-04T10:02:51.108Z,15.18
2022-10-04T10:05:35.459Z,13.23
2022-10-04T10:08:13.368Z,11.70
2022-10-04T10:11:09.901Z,13.07
2022-10-04T10:14:10.744Z,14.27
2022-10-04T10:16:49.732Z,10.98
2022-10-04T10:19:42.426Z,11.27
2022-10-04T10:22:34.268Z,9.82
2022-10-04T10:25:26.962Z,14.65
2022-10-04T10:28:05.115Z,11.95
2022-10-04T10:30:49.706Z,12.68
2022-10-04T10:33:38.249Z,11.52
2022-10-04T10:36:42.428Z,10.30
2022-10-04T10:39:45.208Z,9.23
2022-10-04T10:42:41.491Z,11.15
2022-10-04T10:45:35.499Z,9.45
2022-10-04T10:48:09.696Z,10.20
2022-10-04T10:51:10.466Z,10.00
2022-10-04T10:54:01.035Z,11.05
2022-10-04T10:56:42.703Z,8.65
2022-10-04T10:59:51.955Z,10.63
2022-10-04T11:03:13.571Z,9.43
2022-10-04T11:06:14.122Z,9.40
2022-10-04T11:09:31.686Z,8.85
2022-10-04T11:12:40.045Z,7.95
2022-10-04T11:15:40.175Z,11.10
2022-10-04T11:18:36.832Z,10.20
2022-10-04T11:21:32.702Z,12.68
2022-10-04T11:24:31.420Z,12.23
2022-10-04T11:27:25.190Z,12.50
2022-10-04T11:30:08.664Z,12.40
2022-10-04T11:33:26.265Z,10.75
2022-10-04T11:36:22.034Z,10.00
2022-10-04T11:39:02.682Z,12.38
2022-10-04T11:41:45.335Z,11.68
2022-10-04T11:44:40.218Z,9.02
2022-10-04T11:47:21.894Z,9.43
2022-10-04T11:50:03.163Z,8.32
2022-10-04T11:53:07.368Z,9.52
2022-10-04T11:56:04.226Z,8.68
2022-10-04T11:58:40.234Z,10.82
2022-10-04T12:01:32.274Z,6.68
2022-10-04T12:04:53.686Z,8.30
2022-10-04T12:07:42.410Z,6.93
2022-10-04T12:10:30.608Z,9.77
2022-10-04T12:13:46.797Z,9.80
2022-10-04T12:16:34.963Z,7.55
2022-10-04T12:19:42.598Z,9.18
2022-10-04T12:22:34.171Z,8.70
2022-10-04T12:25:32.317Z,10.27
2022-10-04T12:28:35.774Z,8.98
2022-10-04T12:31:20.239Z,11.02
2022-10-04T12:33:54.842Z,7.07
2022-10-04T12:36:50.090Z,6.95
2022-10-04T12:39:43.718Z,8.98
2022-10-04T12:42:28.105Z,8.10
2022-10-04T12:45:29.740Z,8.80
2022-10-04T12:48:25.621Z,9.60
2022-10-04T12:51:02.999Z,7.97
2022-10-04T12:53:43.340Z,9.05
2022-10-04T12:56:22.238Z,7.88
2022-10-04T12:59:20.709Z,10.90
2022-10-04T13:01:57.740Z,7.38
2022-10-04T13:04:36.050Z,6.55
2022-10-04T13:07:25.898Z,6.90
2022-10-04T13:10:23.554Z,7.20
2022-10-04T13:13:16.949Z,6.80
2022-10-04T13:18:41.671Z,6.57
2022-10-04T13:21:16.736Z,7.40
2022-10-04T13:23:57.442Z,7.55
2022-10-04T13:26:41.655Z,6.15
2022-10-04T13:29:20.880Z,6.22
2022-10-04T13:32:00.121Z,8.05
2022-10-04T13:34:36.728Z,6.65
2022-10-04T13:37:20.619Z,5.90
2022-10-04T13:40:01.964Z,9.07
2022-10-04T13:42:48.145Z,7.13
2022-10-04T13:45:26.971Z,11.63
2022-10-04T13:48:15.134Z,9.70
2022-10-04T13:51:00.730Z,9.68
2022-10-04T13:53:55.998Z,13.20
2022-10-04T13:56:49.785Z,10.65
2022-10-04T13:59:25.123Z,8.85
2022-10-04T14:02:27.583Z,8.77
2022-10-04T14:05:29.790Z,9.13
2022-10-04T14:08:25.215Z,11.18
2022-10-04T14:11:36.488Z,8.07
2022-10-04T14:14:33.310Z,6.68
2022-10-04T14:17:33.950Z,7.30
2022-10-04T14:20:30.494Z,8.00
2022-10-04T14:23:34.606Z,8.65
2022-10-04T14:26:28.886Z,7.22
2022-10-04T14:29:31.503Z,6.63
2022-10-04T14:32:20.575Z,7.65
2022-10-04T14:34:58.276Z,7.20
2022-10-04T14:37:57.342Z,7.47
2022-10-04T14:41:02.226Z,9.10
2022-10-04T14:44:10.523Z,9.40
2022-10-04T14:46:50.466Z,10.15
2022-10-04T14:49:26.423Z,8.77
2022-10-04T14:52:06.624Z,8.45
2022-10-04T14:54:46.616Z,9.60
2022-10-04T14:57:21.640Z,8.52
2022-10-04T15:00:06.817Z,11.57
2022-10-04T15:03:06.150Z,8.00
2022-10-04T15:06:03.795Z,14.52
2022-10-04T15:09:08.800Z,13.10
2022-10-04T15:12:08.042Z,8.65
2022-10-04T15:14:38.920Z,14.48
2022-10-04T15:17:11.211Z,9.40
2022-10-04T15:19:54.138Z,7.40
2022-10-04T15:22:27.388Z,10.90
2022-10-04T15:24:55.153Z,10.02
2022-10-04T15:27:52.497Z,9.35
2022-10-04T15:30:30.896Z,6.70
2022-10-04T15:33:15.967Z,12.05
2022-10-04T15:35:52.538Z,12.20
2022-10-04T15:38:31.227Z,10.50
2022-10-04T15:41:03.265Z,8.20
2022-10-04T15:43:43.895Z,11.18
2022-10-04T15:46:41.573Z,11.30
2022-10-04T15:49:25.089Z,10.27
2022-10-04T15:52:06.422Z,11.57
2022-10-04T15:55:12.052Z,12.85
2022-10-04T15:58:09.526Z,9.65
2022-10-04T16:00:46.625Z,10.18
2022-10-04T16:03:29.244Z,11.32
2022-10-04T16:06:01.961Z,10.02
2022-10-04T16:08:48.743Z,15.27
2022-10-04T16:11:34.296Z,15.35
2022-10-04T16:14:54.133Z,11.85
2022-10-04T16:17:40.385Z,11.30
2022-10-04T16:20:51.038Z,10.68
2022-10-04T16:25:53.942Z,10.52
2022-10-04T16:28:38.576Z,11.65
2022-10-04T16:31:26.746Z,11.07
2022-10-04T16:34:03.088Z,13.32
2022-10-04T16:36:45.477Z,11.30
2022-10-04T16:39:49.141Z,13.65
2022-10-04T16:42:18.827Z,15.93
2022-10-04T16:44:50.676Z,11.70
2022-10-04T16:47:24.833Z,12.45
2022-10-04T16:49:57.592Z,12.05
2022-10-04T16:52:37.310Z,9.02
2022-10-04T16:55:22.088Z,15.98
2022-10-04T16:58:22.178Z,11.45
2022-10-04T17:00:49.977Z,9.90
2022-10-04T17:03:29.968Z,11.30
2022-10-04T17:06:11.863Z,11.25
2022-10-04T17:08:55.866Z,7.57
2022-10-04T17:11:35.891Z,9.75
2022-10-04T17:14:21.135Z,11.73
2022-10-04T17:16:56.248Z,10.40
2022-10-04T17:19:34.856Z,8.52
2022-10-04T17:22:14.825Z,10.82
2022-10-04T17:25:02.024Z,9.35
2022-10-04T17:27:46.171Z,9.05
2022-10-04T17:30:18.296Z,8.00
2022-10-04T17:32:59.980Z,15.48
2022-10-04T17:35:57.040Z,9.73
2022-10-04T17:38:34.117Z,8.23
2022-10-04T17:41:11.275Z,9.20
2022-10-04T17:43:43.654Z,11.75
2022-10-04T17:46:17.537Z,8.35
2022-10-04T17:49:07.643Z,8.43
2022-10-04T17:52:18.997Z,8.65
2022-10-04T17:55:07.666Z,7.85
2022-10-04T17:57:41.731Z,6.90
2022-10-04T18:00:11.431Z,7.22
2022-10-04T18:02:52.761Z,7.88
2022-10-04T18:05:24.553Z,4.75
2022-10-04T18:08:00.116Z,7.97
2022-10-04T18:10:31.561Z,11.50
2022-10-04T18:13:03.654Z,6.85
2022-10-04T18:15:35.907Z,12.52
2022-10-04T18:18:18.771Z,5.55
2022-10-04T18:21:04.660Z,8.35
2022-10-04T18:23:35.831Z,8.52
2022-10-04T18:26:09.481Z,6.13
2022-10-04T18:28:36.747Z,5.65
2022-10-04T18:31:20.744Z,9.05
2022-10-04T18:33:50.478Z,9.23
2022-10-04T18:36:19.616Z,7.00
2022-10-04T18:39:03.581Z,8.98
2022-10-04T18:41:49.347Z,6.20
2022-10-04T18:44:19.525Z,4.43
2022-10-04T18:46:51.476Z,11.88
2022-10-04T18:49:29.576Z,7.82
2022-10-04T18:52:14.890Z,7.68
2022-10-04T18:54:52.057Z,6.13
2022-10-04T18:57:31.298Z,7.57
2022-10-04T19:00:25.732Z,7.60
2022-10-04T19:02:59.691Z,6.97
2022-10-04T19:05:36.572Z,9.13
2022-10-04T19:08:19.310Z,8.35
2022-10-04T19:10:51.325Z,7.85
2022-10-04T19:13:33.010Z,7.28
2022-10-04T19:16:36.258Z,8.07
2022-10-04T19:19:23.130Z,12.25
2022-10-04T19:21:59.344Z,7.13
2022-10-04T19:24:44.480Z,14.13
2022-10-04T19:27:24.916Z,16.60
2022-10-04T19:30:03.514Z,8.15
2022-10-04T19:32:43.234Z,8.90
2022-10-04T19:35:22.763Z,6.80
2022-10-04T19:37:58.057Z,8.57
2022-10-04T19:43:04.986Z,12.95
2022-10-04T19:45:39.193Z,7.82
2022-10-04T19:48:21.895Z,4.47
2022-10-04T19:50:55.541Z,8.15
2022-10-04T19:53:28.081Z,10.15
2022-10-04T19:55:56.613Z,7.10
2022-10-04T19:58:39.922Z,8.98
2022-10-04T20:01:11.732Z,8.00
2022-10-04T20:03:39.463Z,5.90
2022-10-04T20:06:07.556Z,7.00
2022-10-04T20:09:00.924Z,6.15
2022-10-04T20:11:48.791Z,10.50
2022-10-04T20:14:52.336Z,7.93
2022-10-04T20:17:33.563Z,11.52
2022-10-04T20:22:29.978Z,9.48
2022-10-04T20:24:58.117Z,9.13
2022-10-04T20:28:00.101Z,7.10
2022-10-04T20:30:52.869Z,8.82
2022-10-04T20:33:45.556Z,6.25
2022-10-04T20:36:32.848Z,9.32
2022-10-04T20:39:00.544Z,17.23
2022-10-04T20:42:16.979Z,7.15
2022-10-04T20:44:50.796Z,6.93
2022-10-04T20:47:29.042Z,12.88
2022-10-04T20:50:00.172Z,9.55
2022-10-04T20:52:28.647Z,6.28
2022-10-04T20:54:57.396Z,7.15
2022-10-04T20:57:24.628Z,8.45
2022-10-04T20:59:55.563Z,8.18
2022-10-04T21:02:27.481Z,7.18
2022-10-04T21:04:57.572Z,6.03
2022-10-04T21:07:26.077Z,5.95
2022-10-04T21:09:53.917Z,9.18
2022-10-04T21:12:29.910Z,10.30
2022-10-04T21:15:06.778Z,8.95
2022-10-04T21:17:37.308Z,10.35
2022-10-04T21:20:06.326Z,7.90
2022-10-04T21:22:38.387Z,7.00
2022-10-04T21:25:28.859Z,9.43
2022-10-04T21:28:22.629Z,9.73
2022-10-04T21:30:49.496Z,6.97
2022-10-04T21:33:17.685Z,6.78
2022-10-04T21:35:44.442Z,5.32
2022-10-04T21:38:11.167Z,7.10
2022-10-04T21:40:37.974Z,8.27
2022-10-04T21:43:04.682Z,9.40
2022-10-04T21:45:31.456Z,9.23
2022-10-04T21:47:58.166Z,6.00
2022-10-04T21:50:26.486Z,7.57
2022-10-04T21:52:53.615Z,6.10
2022-10-04T21:55:20.331Z,7.88
2022-10-04T21:57:47.100Z,7.20
2022-10-04T22:00:13.829Z,6.63
2022-10-04T22:02:40.654Z,7.40
2022-10-04T22:05:08.115Z,6.05
2022-10-04T22:07:36.544Z,9.95
2022-10-04T22:10:03.546Z,5.45
2022-10-04T22:12:30.287Z,9.65
2022-10-04T22:14:56.999Z,9.38
2022-10-04T22:17:23.808Z,5.82
2022-10-04T22:19:52.956Z,9.23
2022-10-04T22:22:20.009Z,4.28
2022-10-04T22:24:48.164Z,7.47
2022-10-04T22:27:16.529Z,6.28
2022-10-04T22:29:43.863Z,4.93
2022-10-04T22:32:13.312Z,4.70
2022-10-04T22:37:11.382Z,7.35
2022-10-04T22:39:38.549Z,7.32
2022-10-04T22:42:07.618Z,6.72
2022-10-04T22:44:36.548Z,11.05
2022-10-04T22:47:06.663Z,6.88
2022-10-04T22:49:35.668Z,6.47
2022-10-04T22:52:09.775Z,6.28
2022-10-04T22:54:44.664Z,8.30
2022-10-04T22:57:15.247Z,5.88
2022-10-04T22:59:43.760Z,4.45
2022-10-04T23:02:14.052Z,5.57
2022-10-04T23:04:43.654Z,6.90
2022-10-04T23:07:10.416Z,8.82
2022-10-04T23:09:37.185Z,4.38
2022-10-04T23:12:08.081Z,5.15
2022-10-04T23:14:37.026Z,4.95
2022-10-04T23:17:23.702Z,8.07
2022-10-04T23:19:52.278Z,7.68
2022-10-04T23:22:22.990Z,5.55
2022-10-04T23:24:51.451Z,6.45
2022-10-04T23:27:18.309Z,6.35
2022-10-04T23:29:47.694Z,5.65
2022-10-04T23:32:16.104Z,4.20
2022-10-04T23:34:45.631Z,4.50
2022-10-04T23:37:16.355Z,8.30
2022-10-04T23:39:44.557Z,6.57
2022-10-04T23:42:18.015Z,6.75
2022-10-04T23:44:47.571Z,6.05
2022-10-04T23:47:17.701Z,6.13
2022-10-04T23:49:46.172Z,4.32
2022-10-04T23:52:20.096Z,6.43
2022-10-04T23:54:49.561Z,5.50
2022-10-04T23:59:48.364Z,6.10
